sensor_id;sensor_type;location;lat;lon;timestamp;P1;durP1;ratioP1;P2;durP2;ratioP2
8435;SDS011;4255;48.730;9.156;2022-08-03T00:01:42;6.20;;;5.37;;
8435;SDS011;4255;48.730;9.156;2022-08-03T00:04:17;6.80;;;6.10;;
8435;SDS011;4255;48.730;9.156;2022-08-03T00:07:01;7.53;;;5.43;;
8435;SDS011;4255;48.730;9.156;2022-08-03T00:09:33;8.83;;;5.53;;
8435;SDS011;4255;48.730;9.156;2022-08-03T00:12:01;6.00;;;5.50;;
8435;SDS011;4255;48.730;9.156;2022-08-03T00:14:27;6.43;;;5.90;;
8435;SDS011;4255;48.730;9.156;2022-08-03T00:17:09;5.13;;;4.83;;
8435;SDS011;4255;48.730;9.156;2022-08-03T00:19:37;6.37;;;5.33;;
8435;SDS011;4255;48.730;9.156;2022-08-03T00:22:03;6.33;;;5.73;;
8435;SDS011;4255;48.730;9.156;2022-08-03T00:24:28;6.10;;;5.60;;
8435;SDS011;4255;48.730;9.156;2022-08-03T00:26:55;7.00;;;6.40;;
8435;SDS011;4255;48.730;9.156;2022-08-03T00:29:20;6.40;;;5.80;;
8435;SDS011;4255;48.730;9.156;2022-08-03T00:31:46;6.83;;;6.23;;
8435;SDS011;4255;48.730;9.156;2022-08-03T00:34:12;7.27;;;6.50;;
8435;SDS011;4255;48.730;9.156;2022-08-03T00:36:38;6.83;;;6.23;;
8435;SDS011;4255;48.730;9.156;2022-08-03T00:39:04;6.97;;;6.30;;
8435;SDS011;4255;48.730;9.156;2022-08-03T00:41:29;6.30;;;5.70;;
8435;SDS011;4255;48.730;9.156;2022-08-03T00:43:55;6.10;;;5.60;;
8435;SDS011;4255;48.730;9.156;2022-08-03T00:46:21;6.83;;;6.23;;
8435;SDS011;4255;48.730;9.156;2022-08-03T00:48:49;6.93;;;6.33;;
8435;SDS011;4255;48.730;9.156;2022-08-03T00:51:15;5.80;;;5.30;;
8435;SDS011;4255;48.730;9.156;2022-08-03T00:53:41;6.30;;;5.80;;
8435;SDS011;4255;48.730;9.156;2022-08-03T00:56:07;6.47;;;5.87;;
8435;SDS011;4255;48.730;9.156;2022-08-03T00:58:32;8.83;;;6.47;;
8435;SDS011;4255;48.730;9.156;2022-08-03T01:00:58;6.93;;;5.73;;
8435;SDS011;4255;48.730;9.156;2022-08-03T01:03:24;6.97;;;6.30;;
8435;SDS011;4255;48.730;9.156;2022-08-03T01:08:24;6.83;;;6.23;;
8435;SDS011;4255;48.730;9.156;2022-08-03T01:11:25;6.63;;;6.03;;
8435;SDS011;4255;48.730;9.156;2022-08-03T01:16:42;6.67;;;6.07;;
8435;SDS011;4255;48.730;9.156;2022-08-03T01:27:18;6.90;;;6.40;;
8435;SDS011;4255;48.730;9.156;2022-08-03T01:32:27;6.93;;;6.20;;
8435;SDS011;4255;48.730;9.156;2022-08-03T01:35:15;6.63;;;6.13;;
8435;SDS011;4255;48.730;9.156;2022-08-03T01:37:50;7.07;;;6.30;;
8435;SDS011;4255;48.730;9.156;2022-08-03T01:40:19;6.73;;;6.10;;
8435;SDS011;4255;48.730;9.156;2022-08-03T01:42:49;9.93;;;7.23;;
8435;SDS011;4255;48.730;9.156;2022-08-03T01:45:15;9.63;;;6.90;;
8435;SDS011;4255;48.730;9.156;2022-08-03T01:47:43;6.60;;;6.00;;
8435;SDS011;4255;48.730;9.156;2022-08-03T01:50:11;7.97;;;6.80;;
8435;SDS011;4255;48.730;9.156;2022-08-03T01:52:41;6.80;;;6.20;;
8435;SDS011;4255;48.730;9.156;2022-08-03T01:55:08;7.20;;;6.57;;
8435;SDS011;4255;48.730;9.156;2022-08-03T01:57:35;20.20;;;7.30;;
8435;SDS011;4255;48.730;9.156;2022-08-03T02:00:04;7.33;;;6.43;;
8435;SDS011;4255;48.730;9.156;2022-08-03T02:02:33;7.57;;;6.83;;
8435;SDS011;4255;48.730;9.156;2022-08-03T02:05:01;7.47;;;6.80;;
8435;SDS011;4255;48.730;9.156;2022-08-03T02:07:29;7.50;;;6.80;;
8435;SDS011;4255;48.730;9.156;2022-08-03T02:09:56;8.23;;;7.43;;
8435;SDS011;4255;48.730;9.156;2022-08-03T02:12:24;8.60;;;7.80;;
8435;SDS011;4255;48.730;9.156;2022-08-03T02:14:52;10.17;;;7.53;;
8435;SDS011;4255;48.730;9.156;2022-08-03T02:17:20;9.10;;;6.90;;
8435;SDS011;4255;48.730;9.156;2022-08-03T02:19:48;7.80;;;7.00;;
8435;SDS011;4255;48.730;9.156;2022-08-03T02:22:15;8.13;;;7.33;;
8435;SDS011;4255;48.730;9.156;2022-08-03T02:24:42;7.60;;;7.00;;
8435;SDS011;4255;48.730;9.156;2022-08-03T02:27:19;8.73;;;8.03;;
8435;SDS011;4255;48.730;9.156;2022-08-03T02:29:47;8.13;;;7.43;;
8435;SDS011;4255;48.730;9.156;2022-08-03T02:32:19;7.47;;;6.77;;
8435;SDS011;4255;48.730;9.156;2022-08-03T02:34:48;7.70;;;6.90;;
8435;SDS011;4255;48.730;9.156;2022-08-03T02:37:17;6.90;;;6.40;;
8435;SDS011;4255;48.730;9.156;2022-08-03T02:39:43;8.67;;;7.20;;
8435;SDS011;4255;48.730;9.156;2022-08-03T02:42:11;7.50;;;6.77;;
8435;SDS011;4255;48.730;9.156;2022-08-03T02:44:39;8.47;;;7.57;;
8435;SDS011;4255;48.730;9.156;2022-08-03T02:47:11;7.50;;;6.80;;
8435;SDS011;4255;48.730;9.156;2022-08-03T02:49:39;8.07;;;6.80;;
8435;SDS011;4255;48.730;9.156;2022-08-03T02:52:09;8.10;;;7.30;;
8435;SDS011;4255;48.730;9.156;2022-08-03T02:54:36;7.37;;;6.77;;
8435;SDS011;4255;48.730;9.156;2022-08-03T02:57:03;7.00;;;6.40;;
8435;SDS011;4255;48.730;9.156;2022-08-03T02:59:31;7.70;;;6.70;;
8435;SDS011;4255;48.730;9.156;2022-08-03T03:01:58;7.43;;;6.77;;
8435;SDS011;4255;48.730;9.156;2022-08-03T03:04:25;8.37;;;7.47;;
8435;SDS011;4255;48.730;9.156;2022-08-03T03:06:53;9.67;;;6.90;;
8435;SDS011;4255;48.730;9.156;2022-08-03T03:09:20;8.20;;;7.40;;
8435;SDS011;4255;48.730;9.156;2022-08-03T03:11:47;7.67;;;6.53;;
8435;SDS011;4255;48.730;9.156;2022-08-03T03:14:14;7.37;;;6.63;;
8435;SDS011;4255;48.730;9.156;2022-08-03T03:16:41;6.63;;;6.13;;
8435;SDS011;4255;48.730;9.156;2022-08-03T03:19:09;7.50;;;6.93;;
8435;SDS011;4255;48.730;9.156;2022-08-03T03:21:37;7.10;;;6.50;;
8435;SDS011;4255;48.730;9.156;2022-08-03T03:24:04;7.67;;;7.07;;
8435;SDS011;4255;48.730;9.156;2022-08-03T03:26:30;8.33;;;7.47;;
8435;SDS011;4255;48.730;9.156;2022-08-03T03:28:57;8.40;;;7.60;;
8435;SDS011;4255;48.730;9.156;2022-08-03T03:31:22;9.50;;;8.23;;
8435;SDS011;4255;48.730;9.156;2022-08-03T03:33:48;7.83;;;7.10;;
8435;SDS011;4255;48.730;9.156;2022-08-03T03:36:14;7.90;;;7.07;;
8435;SDS011;4255;48.730;9.156;2022-08-03T03:38:40;8.10;;;7.40;;
8435;SDS011;4255;48.730;9.156;2022-08-03T03:41:05;14.87;;;7.10;;
8435;SDS011;4255;48.730;9.156;2022-08-03T03:43:31;7.73;;;7.03;;
8435;SDS011;4255;48.730;9.156;2022-08-03T03:45:57;8.30;;;7.40;;
8435;SDS011;4255;48.730;9.156;2022-08-03T03:48:24;8.20;;;7.40;;
8435;SDS011;4255;48.730;9.156;2022-08-03T03:50:50;9.03;;;8.13;;
8435;SDS011;4255;48.730;9.156;2022-08-03T03:53:17;9.27;;;8.37;;
8435;SDS011;4255;48.730;9.156;2022-08-03T03:55:42;8.87;;;8.10;;
8435;SDS011;4255;48.730;9.156;2022-08-03T03:58:08;8.50;;;7.60;;
8435;SDS011;4255;48.730;9.156;2022-08-03T04:00:34;8.70;;;7.80;;
8435;SDS011;4255;48.730;9.156;2022-08-03T04:03:00;8.47;;;7.67;;
8435;SDS011;4255;48.730;9.156;2022-08-03T04:05:25;8.40;;;7.20;;
8435;SDS011;4255;48.730;9.156;2022-08-03T04:08:13;8.17;;;7.47;;
8435;SDS011;4255;48.730;9.156;2022-08-03T04:11:07;8.37;;;7.57;;
8435;SDS011;4255;48.730;9.156;2022-08-03T04:13:43;8.50;;;7.70;;
8435;SDS011;4255;48.730;9.156;2022-08-03T04:16:17;7.63;;;6.97;;
8435;SDS011;4255;48.730;9.156;2022-08-03T04:18:46;7.90;;;7.20;;
8435;SDS011;4255;48.730;9.156;2022-08-03T04:21:16;6.60;;;6.10;;
8435;SDS011;4255;48.730;9.156;2022-08-03T04:23:46;8.47;;;7.77;;
8435;SDS011;4255;48.730;9.156;2022-08-03T04:26:16;8.27;;;7.53;;
8435;SDS011;4255;48.730;9.156;2022-08-03T04:28:45;7.90;;;7.20;;
8435;SDS011;4255;48.730;9.156;2022-08-03T04:31:12;8.60;;;7.70;;
8435;SDS011;4255;48.730;9.156;2022-08-03T04:33:40;8.87;;;7.77;;
8435;SDS011;4255;48.730;9.156;2022-08-03T04:36:08;10.50;;;7.10;;
8435;SDS011;4255;48.730;9.156;2022-08-03T04:38:39;8.20;;;7.40;;
8435;SDS011;4255;48.730;9.156;2022-08-03T04:41:27;7.33;;;6.63;;
8435;SDS011;4255;48.730;9.156;2022-08-03T04:43:55;11.00;;;7.70;;
8435;SDS011;4255;48.730;9.156;2022-08-03T04:46:23;7.23;;;6.53;;
8435;SDS011;4255;48.730;9.156;2022-08-03T04:48:51;8.90;;;8.00;;
8435;SDS011;4255;48.730;9.156;2022-08-03T04:51:17;7.17;;;6.37;;
8435;SDS011;4255;48.730;9.156;2022-08-03T04:53:43;8.43;;;7.73;;
8435;SDS011;4255;48.730;9.156;2022-08-03T04:56:09;8.80;;;7.80;;
8435;SDS011;4255;48.730;9.156;2022-08-03T04:58:34;10.87;;;8.50;;
8435;SDS011;4255;48.730;9.156;2022-08-03T05:01:00;8.50;;;7.47;;
8435;SDS011;4255;48.730;9.156;2022-08-03T05:03:26;10.20;;;7.70;;
8435;SDS011;4255;48.730;9.156;2022-08-03T05:05:52;8.83;;;8.00;;
8435;SDS011;4255;48.730;9.156;2022-08-03T05:08:18;8.00;;;7.27;;
8435;SDS011;4255;48.730;9.156;2022-08-03T05:10:44;9.60;;;8.53;;
8435;SDS011;4255;48.730;9.156;2022-08-03T05:13:10;8.77;;;7.77;;
8435;SDS011;4255;48.730;9.156;2022-08-03T05:15:37;8.97;;;8.07;;
8435;SDS011;4255;48.730;9.156;2022-08-03T05:18:03;9.63;;;8.63;;
8435;SDS011;4255;48.730;9.156;2022-08-03T05:20:29;8.33;;;7.53;;
8435;SDS011;4255;48.730;9.156;2022-08-03T05:22:55;10.70;;;8.30;;
8435;SDS011;4255;48.730;9.156;2022-08-03T05:25:21;9.80;;;8.50;;
8435;SDS011;4255;48.730;9.156;2022-08-03T05:27:47;42.67;;;16.70;;
8435;SDS011;4255;48.730;9.156;2022-08-03T05:30:13;20.13;;;9.03;;
8435;SDS011;4255;48.730;9.156;2022-08-03T05:32:39;15.73;;;8.50;;
8435;SDS011;4255;48.730;9.156;2022-08-03T05:35:04;12.60;;;8.20;;
8435;SDS011;4255;48.730;9.156;2022-08-03T05:37:30;8.23;;;7.43;;
8435;SDS011;4255;48.730;9.156;2022-08-03T05:39:56;11.20;;;7.73;;
8435;SDS011;4255;48.730;9.156;2022-08-03T05:42:22;11.97;;;7.70;;
8435;SDS011;4255;48.730;9.156;2022-08-03T05:44:47;8.53;;;7.70;;
8435;SDS011;4255;48.730;9.156;2022-08-03T05:47:13;7.43;;;6.57;;
8435;SDS011;4255;48.730;9.156;2022-08-03T05:49:38;8.43;;;6.40;;
8435;SDS011;4255;48.730;9.156;2022-08-03T05:52:04;17.27;;;7.20;;
8435;SDS011;4255;48.730;9.156;2022-08-03T05:54:30;6.67;;;6.07;;
8435;SDS011;4255;48.730;9.156;2022-08-03T05:56:55;5.97;;;5.47;;
8435;SDS011;4255;48.730;9.156;2022-08-03T05:59:21;10.90;;;6.27;;
8435;SDS011;4255;48.730;9.156;2022-08-03T06:01:46;9.07;;;5.30;;
8435;SDS011;4255;48.730;9.156;2022-08-03T06:04:12;8.77;;;4.93;;
8435;SDS011;4255;48.730;9.156;2022-08-03T06:06:38;5.83;;;5.33;;
8435;SDS011;4255;48.730;9.156;2022-08-03T06:09:04;5.77;;;5.13;;
8435;SDS011;4255;48.730;9.156;2022-08-03T06:11:30;7.00;;;5.40;;
8435;SDS011;4255;48.730;9.156;2022-08-03T06:13:55;6.70;;;6.10;;
8435;SDS011;4255;48.730;9.156;2022-08-03T06:16:21;6.03;;;4.93;;
8435;SDS011;4255;48.730;9.156;2022-08-03T06:18:47;5.87;;;5.37;;
8435;SDS011;4255;48.730;9.156;2022-08-03T06:21:12;8.10;;;5.30;;
8435;SDS011;4255;48.730;9.156;2022-08-03T06:23:38;5.73;;;5.23;;
8435;SDS011;4255;48.730;9.156;2022-08-03T06:26:04;5.93;;;5.33;;
8435;SDS011;4255;48.730;9.156;2022-08-03T06:28:29;6.57;;;5.90;;
8435;SDS011;4255;48.730;9.156;2022-08-03T06:30:55;6.30;;;5.70;;
8435;SDS011;4255;48.730;9.156;2022-08-03T06:33:20;8.07;;;4.83;;
8435;SDS011;4255;48.730;9.156;2022-08-03T06:35:46;5.13;;;4.73;;
8435;SDS011;4255;48.730;9.156;2022-08-03T06:38:12;5.70;;;5.17;;
8435;SDS011;4255;48.730;9.156;2022-08-03T06:40:37;7.00;;;5.30;;
8435;SDS011;4255;48.730;9.156;2022-08-03T06:43:06;6.40;;;5.50;;
8435;SDS011;4255;48.730;9.156;2022-08-03T06:45:32;8.33;;;5.20;;
8435;SDS011;4255;48.730;9.156;2022-08-03T06:48:04;6.33;;;5.03;;
8435;SDS011;4255;48.730;9.156;2022-08-03T06:50:30;5.83;;;4.73;;
8435;SDS011;4255;48.730;9.156;2022-08-03T06:52:56;5.93;;;5.40;;
8435;SDS011;4255;48.730;9.156;2022-08-03T06:55:22;6.53;;;5.00;;
8435;SDS011;4255;48.730;9.156;2022-08-03T06:57:48;8.60;;;5.30;;
8435;SDS011;4255;48.730;9.156;2022-08-03T07:00:13;7.60;;;5.53;;
8435;SDS011;4255;48.730;9.156;2022-08-03T07:02:39;8.53;;;5.50;;
8435;SDS011;4255;48.730;9.156;2022-08-03T07:05:05;8.27;;;4.87;;
8435;SDS011;4255;48.730;9.156;2022-08-03T07:07:32;10.90;;;5.70;;
8435;SDS011;4255;48.730;9.156;2022-08-03T07:09:58;15.47;;;5.30;;
8435;SDS011;4255;48.730;9.156;2022-08-03T07:12:24;8.33;;;5.00;;
8435;SDS011;4255;48.730;9.156;2022-08-03T07:14:51;7.93;;;5.00;;
8435;SDS011;4255;48.730;9.156;2022-08-03T07:17:19;6.17;;;4.03;;
8435;SDS011;4255;48.730;9.156;2022-08-03T07:19:44;11.70;;;6.03;;
8435;SDS011;4255;48.730;9.156;2022-08-03T07:22:10;6.07;;;4.90;;
8435;SDS011;4255;48.730;9.156;2022-08-03T07:24:36;12.13;;;9.33;;
8435;SDS011;4255;48.730;9.156;2022-08-03T07:27:02;9.20;;;4.90;;
8435;SDS011;4255;48.730;9.156;2022-08-03T07:29:27;11.27;;;6.73;;
8435;SDS011;4255;48.730;9.156;2022-08-03T07:31:53;10.03;;;4.63;;
8435;SDS011;4255;48.730;9.156;2022-08-03T07:34:19;8.23;;;4.37;;
8435;SDS011;4255;48.730;9.156;2022-08-03T07:36:44;9.20;;;4.40;;
8435;SDS011;4255;48.730;9.156;2022-08-03T07:39:10;4.43;;;3.90;;
8435;SDS011;4255;48.730;9.156;2022-08-03T07:41:36;11.90;;;4.30;;
8435;SDS011;4255;48.730;9.156;2022-08-03T07:44:01;9.87;;;4.50;;
8435;SDS011;4255;48.730;9.156;2022-08-03T07:46:27;8.63;;;5.73;;
8435;SDS011;4255;48.730;9.156;2022-08-03T07:48:53;7.73;;;4.83;;
8435;SDS011;4255;48.730;9.156;2022-08-03T07:51:20;5.90;;;4.70;;
8435;SDS011;4255;48.730;9.156;2022-08-03T07:53:46;7.37;;;4.23;;
8435;SDS011;4255;48.730;9.156;2022-08-03T07:56:12;3.83;;;3.53;;
8435;SDS011;4255;48.730;9.156;2022-08-03T07:58:40;3.63;;;3.33;;
8435;SDS011;4255;48.730;9.156;2022-08-03T08:01:06;9.23;;;3.43;;
8435;SDS011;4255;48.730;9.156;2022-08-03T08:03:32;4.03;;;3.07;;
8435;SDS011;4255;48.730;9.156;2022-08-03T08:05:57;3.83;;;3.53;;
8435;SDS011;4255;48.730;9.156;2022-08-03T08:08:23;2.93;;;2.73;;
8435;SDS011;4255;48.730;9.156;2022-08-03T08:10:49;3.50;;;3.17;;
8435;SDS011;4255;48.730;9.156;2022-08-03T08:13:14;3.37;;;3.07;;
8435;SDS011;4255;48.730;9.156;2022-08-03T08:15:40;3.07;;;2.87;;
8435;SDS011;4255;48.730;9.156;2022-08-03T08:18:05;3.33;;;3.03;;
8435;SDS011;4255;48.730;9.156;2022-08-03T08:20:32;7.60;;;3.17;;
8435;SDS011;4255;48.730;9.156;2022-08-03T08:23:00;2.80;;;2.50;;
8435;SDS011;4255;48.730;9.156;2022-08-03T08:25:27;3.33;;;3.03;;
8435;SDS011;4255;48.730;9.156;2022-08-03T08:27:55;5.50;;;3.07;;
8435;SDS011;4255;48.730;9.156;2022-08-03T08:30:21;2.87;;;2.67;;
8435;SDS011;4255;48.730;9.156;2022-08-03T08:32:48;2.43;;;2.23;;
8435;SDS011;4255;48.730;9.156;2022-08-03T08:35:15;4.67;;;3.50;;
8435;SDS011;4255;48.730;9.156;2022-08-03T08:37:42;2.70;;;2.50;;
8435;SDS011;4255;48.730;9.156;2022-08-03T08:40:08;2.80;;;2.60;;
8435;SDS011;4255;48.730;9.156;2022-08-03T08:42:38;3.10;;;2.80;;
8435;SDS011;4255;48.730;9.156;2022-08-03T08:45:05;15.20;;;4.53;;
8435;SDS011;4255;48.730;9.156;2022-08-03T08:47:33;3.23;;;3.03;;
8435;SDS011;4255;48.730;9.156;2022-08-03T08:50:02;12.03;;;3.57;;
8435;SDS011;4255;48.730;9.156;2022-08-03T08:52:29;2.80;;;2.60;;
8435;SDS011;4255;48.730;9.156;2022-08-03T08:54:57;4.37;;;2.63;;
8435;SDS011;4255;48.730;9.156;2022-08-03T08:57:26;2.70;;;2.50;;
8435;SDS011;4255;48.730;9.156;2022-08-03T08:59:55;2.10;;;1.90;;
8435;SDS011;4255;48.730;9.156;2022-08-03T09:02:24;2.93;;;2.60;;
8435;SDS011;4255;48.730;9.156;2022-08-03T09:04:54;5.63;;;2.40;;
8435;SDS011;4255;48.730;9.156;2022-08-03T09:07:22;3.67;;;2.40;;
8435;SDS011;4255;48.730;9.156;2022-08-03T09:09:47;2.43;;;2.33;;
8435;SDS011;4255;48.730;9.156;2022-08-03T09:12:13;3.97;;;2.60;;
8435;SDS011;4255;48.730;9.156;2022-08-03T09:14:39;2.93;;;2.73;;
8435;SDS011;4255;48.730;9.156;2022-08-03T09:17:05;3.13;;;2.90;;
8435;SDS011;4255;48.730;9.156;2022-08-03T09:19:32;2.77;;;2.57;;
8435;SDS011;4255;48.730;9.156;2022-08-03T09:22:08;3.00;;;2.80;;
8435;SDS011;4255;48.730;9.156;2022-08-03T09:24:37;3.70;;;2.57;;
8435;SDS011;4255;48.730;9.156;2022-08-03T09:27:17;3.33;;;2.60;;
8435;SDS011;4255;48.730;9.156;2022-08-03T09:29:46;4.77;;;2.70;;
8435;SDS011;4255;48.730;9.156;2022-08-03T09:32:12;4.37;;;2.30;;
8435;SDS011;4255;48.730;9.156;2022-08-03T09:34:39;5.23;;;2.70;;
8435;SDS011;4255;48.730;9.156;2022-08-03T09:37:11;2.70;;;2.37;;
8435;SDS011;4255;48.730;9.156;2022-08-03T09:39:38;5.97;;;2.40;;
8435;SDS011;4255;48.730;9.156;2022-08-03T09:42:17;1.87;;;1.77;;
8435;SDS011;4255;48.730;9.156;2022-08-03T09:47:11;3.50;;;2.17;;
8435;SDS011;4255;48.730;9.156;2022-08-03T09:49:38;3.40;;;1.93;;
8435;SDS011;4255;48.730;9.156;2022-08-03T09:52:15;2.10;;;2.00;;
8435;SDS011;4255;48.730;9.156;2022-08-03T09:54:44;2.73;;;2.10;;
8435;SDS011;4255;48.730;9.156;2022-08-03T09:57:22;4.73;;;2.27;;
8435;SDS011;4255;48.730;9.156;2022-08-03T09:59:50;1.80;;;1.70;;
8435;SDS011;4255;48.730;9.156;2022-08-03T10:02:20;2.50;;;2.20;;
8435;SDS011;4255;48.730;9.156;2022-08-03T10:04:50;2.93;;;2.20;;
8435;SDS011;4255;48.730;9.156;2022-08-03T10:07:17;2.23;;;2.13;;
8435;SDS011;4255;48.730;9.156;2022-08-03T10:12:23;2.07;;;1.97;;
8435;SDS011;4255;48.730;9.156;2022-08-03T10:14:49;2.03;;;1.93;;
8435;SDS011;4255;48.730;9.156;2022-08-03T10:17:16;9.03;;;2.43;;
8435;SDS011;4255;48.730;9.156;2022-08-03T10:19:42;2.27;;;2.07;;
8435;SDS011;4255;48.730;9.156;2022-08-03T10:22:12;2.00;;;1.90;;
8435;SDS011;4255;48.730;9.156;2022-08-03T10:24:45;2.37;;;2.10;;
8435;SDS011;4255;48.730;9.156;2022-08-03T10:27:21;2.37;;;2.27;;
8435;SDS011;4255;48.730;9.156;2022-08-03T10:29:50;2.03;;;1.93;;
8435;SDS011;4255;48.730;9.156;2022-08-03T10:32:21;2.07;;;1.97;;
8435;SDS011;4255;48.730;9.156;2022-08-03T10:35:09;2.40;;;2.30;;
8435;SDS011;4255;48.730;9.156;2022-08-03T10:37:40;2.03;;;1.93;;
8435;SDS011;4255;48.730;9.156;2022-08-03T10:40:08;2.40;;;2.20;;
8435;SDS011;4255;48.730;9.156;2022-08-03T10:42:37;2.43;;;2.20;;
8435;SDS011;4255;48.730;9.156;2022-08-03T10:45:05;2.10;;;2.00;;
8435;SDS011;4255;48.730;9.156;2022-08-03T10:47:33;5.73;;;2.67;;
8435;SDS011;4255;48.730;9.156;2022-08-03T10:50:00;3.03;;;2.70;;
8435;SDS011;4255;48.730;9.156;2022-08-03T10:52:27;2.43;;;2.33;;
8435;SDS011;4255;48.730;9.156;2022-08-03T10:54:52;2.60;;;2.40;;
8435;SDS011;4255;48.730;9.156;2022-08-03T10:57:44;3.20;;;2.10;;
8435;SDS011;4255;48.730;9.156;2022-08-03T11:00:20;2.40;;;2.20;;
8435;SDS011;4255;48.730;9.156;2022-08-03T11:03:05;2.80;;;2.40;;
8435;SDS011;4255;48.730;9.156;2022-08-03T11:05:40;3.70;;;2.60;;
8435;SDS011;4255;48.730;9.156;2022-08-03T11:10:41;2.83;;;2.53;;
8435;SDS011;4255;48.730;9.156;2022-08-03T11:13:07;2.30;;;2.20;;
8435;SDS011;4255;48.730;9.156;2022-08-03T11:15:34;2.40;;;2.27;;
8435;SDS011;4255;48.730;9.156;2022-08-03T11:18:08;2.63;;;2.40;;
8435;SDS011;4255;48.730;9.156;2022-08-03T11:20:45;2.33;;;2.23;;
8435;SDS011;4255;48.730;9.156;2022-08-03T11:23:11;2.20;;;2.10;;
8435;SDS011;4255;48.730;9.156;2022-08-03T11:28:34;2.33;;;2.23;;
8435;SDS011;4255;48.730;9.156;2022-08-03T11:36:28;3.10;;;2.70;;
8435;SDS011;4255;48.730;9.156;2022-08-03T11:39:13;2.30;;;2.10;;
8435;SDS011;4255;48.730;9.156;2022-08-03T11:41:40;2.73;;;2.50;;
8435;SDS011;4255;48.730;9.156;2022-08-03T11:44:05;3.00;;;2.60;;
8435;SDS011;4255;48.730;9.156;2022-08-03T11:46:37;2.80;;;2.60;;
8435;SDS011;4255;48.730;9.156;2022-08-03T11:49:04;3.40;;;3.10;;
8435;SDS011;4255;48.730;9.156;2022-08-03T11:51:31;2.80;;;2.53;;
8435;SDS011;4255;48.730;9.156;2022-08-03T11:53:58;5.53;;;2.73;;
8435;SDS011;4255;48.730;9.156;2022-08-03T11:56:26;3.63;;;2.40;;
8435;SDS011;4255;48.730;9.156;2022-08-03T11:58:54;3.50;;;2.30;;
8435;SDS011;4255;48.730;9.156;2022-08-03T12:01:22;3.10;;;2.20;;
8435;SDS011;4255;48.730;9.156;2022-08-03T12:03:50;2.70;;;2.17;;
8435;SDS011;4255;48.730;9.156;2022-08-03T12:06:16;4.13;;;2.40;;
8435;SDS011;4255;48.730;9.156;2022-08-03T12:08:43;2.53;;;2.40;;
8435;SDS011;4255;48.730;9.156;2022-08-03T12:11:10;2.50;;;2.40;;
8435;SDS011;4255;48.730;9.156;2022-08-03T12:16:21;2.80;;;2.30;;
8435;SDS011;4255;48.730;9.156;2022-08-03T12:18:55;2.83;;;2.63;;
8435;SDS011;4255;48.730;9.156;2022-08-03T12:21:29;2.83;;;2.43;;
8435;SDS011;4255;48.730;9.156;2022-08-03T12:23:58;2.83;;;2.57;;
8435;SDS011;4255;48.730;9.156;2022-08-03T12:26:25;2.87;;;2.67;;
8435;SDS011;4255;48.730;9.156;2022-08-03T12:28:52;2.40;;;2.30;;
8435;SDS011;4255;48.730;9.156;2022-08-03T12:31:18;3.00;;;2.70;;
8435;SDS011;4255;48.730;9.156;2022-08-03T12:33:53;2.77;;;2.50;;
8435;SDS011;4255;48.730;9.156;2022-08-03T12:36:27;2.83;;;2.63;;
8435;SDS011;4255;48.730;9.156;2022-08-03T12:38:58;2.73;;;2.63;;
8435;SDS011;4255;48.730;9.156;2022-08-03T12:41:30;2.30;;;2.20;;
8435;SDS011;4255;48.730;9.156;2022-08-03T12:44:00;2.50;;;2.30;;
8435;SDS011;4255;48.730;9.156;2022-08-03T12:46:34;2.50;;;2.30;;
8435;SDS011;4255;48.730;9.156;2022-08-03T12:49:04;2.47;;;2.37;;
8435;SDS011;4255;48.730;9.156;2022-08-03T12:51:36;3.37;;;2.57;;
8435;SDS011;4255;48.730;9.156;2022-08-03T12:54:21;2.13;;;2.03;;
8435;SDS011;4255;48.730;9.156;2022-08-03T12:57:01;2.30;;;2.10;;
8435;SDS011;4255;48.730;9.156;2022-08-03T12:59:32;2.90;;;2.70;;
8435;SDS011;4255;48.730;9.156;2022-08-03T13:01:58;2.73;;;2.40;;
8435;SDS011;4255;48.730;9.156;2022-08-03T13:04:28;2.40;;;2.30;;
8435;SDS011;4255;48.730;9.156;2022-08-03T13:06:56;5.90;;;3.13;;
8435;SDS011;4255;48.730;9.156;2022-08-03T13:09:22;3.70;;;2.37;;
8435;SDS011;4255;48.730;9.156;2022-08-03T13:12:12;2.80;;;2.10;;
8435;SDS011;4255;48.730;9.156;2022-08-03T13:14:37;3.10;;;2.27;;
8435;SDS011;4255;48.730;9.156;2022-08-03T13:17:04;2.40;;;2.30;;
8435;SDS011;4255;48.730;9.156;2022-08-03T13:19:33;2.40;;;2.30;;
8435;SDS011;4255;48.730;9.156;2022-08-03T13:22:00;2.50;;;2.40;;
8435;SDS011;4255;48.730;9.156;2022-08-03T13:24:42;3.90;;;2.37;;
8435;SDS011;4255;48.730;9.156;2022-08-03T13:27:09;2.83;;;2.63;;
8435;SDS011;4255;48.730;9.156;2022-08-03T13:29:35;2.77;;;2.57;;
8435;SDS011;4255;48.730;9.156;2022-08-03T13:32:01;2.70;;;2.50;;
8435;SDS011;4255;48.730;9.156;2022-08-03T13:34:28;2.93;;;2.73;;
8435;SDS011;4255;48.730;9.156;2022-08-03T13:36:54;4.40;;;2.30;;
8435;SDS011;4255;48.730;9.156;2022-08-03T13:39:19;2.73;;;2.40;;
8435;SDS011;4255;48.730;9.156;2022-08-03T13:41:45;2.30;;;2.10;;
8435;SDS011;4255;48.730;9.156;2022-08-03T13:44:12;3.10;;;2.50;;
8435;SDS011;4255;48.730;9.156;2022-08-03T13:46:38;2.70;;;2.60;;
8435;SDS011;4255;48.730;9.156;2022-08-03T13:49:04;5.27;;;2.40;;
8435;SDS011;4255;48.730;9.156;2022-08-03T13:51:30;3.93;;;2.40;;
8435;SDS011;4255;48.730;9.156;2022-08-03T13:53:56;2.37;;;2.27;;
8435;SDS011;4255;48.730;9.156;2022-08-03T13:56:23;2.40;;;2.30;;
8435;SDS011;4255;48.730;9.156;2022-08-03T13:58:52;2.50;;;2.40;;
8435;SDS011;4255;48.730;9.156;2022-08-03T14:01:18;2.43;;;2.20;;
8435;SDS011;4255;48.730;9.156;2022-08-03T14:03:45;2.57;;;2.40;;
8435;SDS011;4255;48.730;9.156;2022-08-03T14:06:16;2.63;;;2.43;;
8435;SDS011;4255;48.730;9.156;2022-08-03T14:08:43;2.23;;;2.13;;
8435;SDS011;4255;48.730;9.156;2022-08-03T14:11:09;2.37;;;2.27;;
8435;SDS011;4255;48.730;9.156;2022-08-03T14:13:34;2.23;;;2.13;;
8435;SDS011;4255;48.730;9.156;2022-08-03T14:16:02;2.40;;;2.20;;
8435;SDS011;4255;48.730;9.156;2022-08-03T14:18:28;2.93;;;2.73;;
8435;SDS011;4255;48.730;9.156;2022-08-03T14:20:53;2.70;;;2.60;;
8435;SDS011;4255;48.730;9.156;2022-08-03T14:23:19;2.80;;;2.60;;
8435;SDS011;4255;48.730;9.156;2022-08-03T14:25:45;2.90;;;2.63;;
8435;SDS011;4255;48.730;9.156;2022-08-03T14:28:10;3.03;;;2.33;;
8435;SDS011;4255;48.730;9.156;2022-08-03T14:30:36;2.63;;;2.43;;
8435;SDS011;4255;48.730;9.156;2022-08-03T14:33:02;2.60;;;2.50;;
8435;SDS011;4255;48.730;9.156;2022-08-03T14:35:27;2.73;;;2.63;;
8435;SDS011;4255;48.730;9.156;2022-08-03T14:37:53;3.40;;;2.50;;
8435;SDS011;4255;48.730;9.156;2022-08-03T14:40:19;2.50;;;2.30;;
8435;SDS011;4255;48.730;9.156;2022-08-03T14:42:45;5.20;;;2.40;;
8435;SDS011;4255;48.730;9.156;2022-08-03T14:45:11;2.20;;;2.10;;
8435;SDS011;4255;48.730;9.156;2022-08-03T14:47:37;2.13;;;2.03;;
8435;SDS011;4255;48.730;9.156;2022-08-03T14:50:03;2.43;;;2.33;;
8435;SDS011;4255;48.730;9.156;2022-08-03T14:52:31;2.93;;;2.23;;
8435;SDS011;4255;48.730;9.156;2022-08-03T14:54:57;2.93;;;2.73;;
8435;SDS011;4255;48.730;9.156;2022-08-03T14:57:23;2.47;;;2.27;;
8435;SDS011;4255;48.730;9.156;2022-08-03T14:59:49;3.17;;;2.60;;
8435;SDS011;4255;48.730;9.156;2022-08-03T15:02:15;3.37;;;2.70;;
8435;SDS011;4255;48.730;9.156;2022-08-03T15:04:40;3.20;;;2.50;;
8435;SDS011;4255;48.730;9.156;2022-08-03T15:07:06;2.40;;;2.30;;
8435;SDS011;4255;48.730;9.156;2022-08-03T15:09:32;2.67;;;2.43;;
8435;SDS011;4255;48.730;9.156;2022-08-03T15:11:58;6.27;;;2.90;;
8435;SDS011;4255;48.730;9.156;2022-08-03T15:14:23;2.60;;;2.40;;
8435;SDS011;4255;48.730;9.156;2022-08-03T15:16:49;2.50;;;2.40;;
8435;SDS011;4255;48.730;9.156;2022-08-03T15:19:15;4.67;;;2.27;;
8435;SDS011;4255;48.730;9.156;2022-08-03T15:21:41;3.43;;;2.70;;
8435;SDS011;4255;48.730;9.156;2022-08-03T15:24:07;2.60;;;2.40;;
8435;SDS011;4255;48.730;9.156;2022-08-03T15:26:33;2.30;;;2.10;;
8435;SDS011;4255;48.730;9.156;2022-08-03T15:28:58;4.83;;;2.40;;
8435;SDS011;4255;48.730;9.156;2022-08-03T15:31:24;2.60;;;2.40;;
8435;SDS011;4255;48.730;9.156;2022-08-03T15:33:50;2.47;;;2.37;;
8435;SDS011;4255;48.730;9.156;2022-08-03T15:36:16;2.30;;;2.20;;
8435;SDS011;4255;48.730;9.156;2022-08-03T15:38:42;2.10;;;2.00;;
8435;SDS011;4255;48.730;9.156;2022-08-03T15:41:08;4.30;;;2.40;;
8435;SDS011;4255;48.730;9.156;2022-08-03T15:43:33;2.13;;;2.03;;
8435;SDS011;4255;48.730;9.156;2022-08-03T15:45:59;2.80;;;2.70;;
8435;SDS011;4255;48.730;9.156;2022-08-03T15:48:25;3.00;;;2.30;;
8435;SDS011;4255;48.730;9.156;2022-08-03T15:50:51;4.97;;;2.17;;
8435;SDS011;4255;48.730;9.156;2022-08-03T15:53:18;3.47;;;2.40;;
8435;SDS011;4255;48.730;9.156;2022-08-03T15:55:44;2.37;;;2.13;;